Time;durP1;ratioP1;P1;durP2;ratioP2;P2;SDS_P1;SDS_P2;PMS_P1;PMS_P2;Temp;Humidity;BMP_temperature;BMP_pressure;BME280_temperature;BME280_humidity;BME280_pressure;Samples;Min_cycle;Max_cycle;Signal;HPM_P1;HPM_P2
2024/02/07 00:00:52;;;;;;;5.00;2.50;;;;;;;7.87;59.99;96143.67;104666;1273;103360;-78
2024/02/07 00:03:40;;;;;;;5.80;3.40;;;;;;;7.86;59.78;96142.77;104622;1259;102779;-77
2024/02/07 00:06:07;;;;;;;7.50;2.80;;;;;;;7.87;59.87;96146.77;104691;1258;100545;-77
2024/02/07 00:08:35;;;;;;;8.30;2.70;;;;;;;7.87;59.40;96148.83;104716;1257;98017;-78
2024/02/07 00:11:03;;;;;;;8.00;2.20;;;;;;;7.89;58.92;96145.55;104584;1271;98414;-78
2024/02/07 00:13:31;;;;;;;7.00;2.00;;;;;;;7.90;59.02;96134.14;104646;1262;103533;-78
2024/02/07 00:15:59;;;;;;;5.80;3.00;;;;;;;7.90;59.16;96140.21;104693;1260;101604;-77
2024/02/07 00:18:27;;;;;;;7.60;3.30;;;;;;;7.88;59.33;96135.67;104596;1270;100120;-77
2024/02/07 00:20:55;;;;;;;8.20;2.90;;;;;;;7.88;59.70;96139.23;104595;1263;97992;-77
2024/02/07 00:23:23;;;;;;;6.60;3.10;;;;;;;7.87;59.83;96136.51;104593;1264;98497;-77
2024/02/07 00:25:50;;;;;;;6.30;3.40;;;;;;;7.84;59.93;96129.95;104619;1270;103456;-77
2024/02/07 00:28:18;;;;;;;7.30;2.70;;;;;;;7.81;59.95;96133.63;104661;1270;101207;-77
2024/02/07 00:30:46;;;;;;;8.50;2.90;;;;;;;7.79;59.99;96126.95;104624;1263;100073;-76
2024/02/07 00:33:13;;;;;;;5.80;3.10;;;;;;;7.78;60.10;96120.30;104593;1263;98266;-76
2024/02/07 00:35:41;;;;;;;7.30;3.30;;;;;;;7.78;59.99;96121.10;104691;1270;98379;-74
2024/02/07 00:38:09;;;;;;;7.40;2.60;;;;;;;7.78;60.09;96114.06;104657;1270;103770;-74
2024/02/07 00:40:37;;;;;;;3.30;2.40;;;;;;;7.78;60.08;96106.50;104710;1270;101295;-74
2024/02/07 00:43:04;;;;;;;5.50;2.90;;;;;;;7.77;60.00;96104.48;104708;1270;100286;-73
2024/02/07 00:45:32;;;;;;;8.10;3.40;;;;;;;7.78;60.09;96100.09;104723;1273;97911;-74
2024/02/07 00:48:00;;;;;;;5.70;3.10;;;;;;;7.76;60.03;96096.44;104676;1260;97825;-73
2024/02/07 00:50:28;;;;;;;6.10;3.30;;;;;;;7.74;60.27;96094.81;104636;1257;103533;-73
2024/02/07 00:52:56;;;;;;;8.00;2.90;;;;;;;7.73;60.25;96093.20;104616;1257;101683;-74
2024/02/07 00:55:23;;;;;;;4.30;2.50;;;;;;;7.72;60.27;96084.41;104550;1270;100152;-75
2024/02/07 00:57:51;;;;;;;8.10;2.60;;;;;;;7.71;60.27;96081.48;104591;1268;98067;-75
2024/02/07 01:00:19;;;;;;;6.10;2.10;;;;;;;7.70;60.35;96082.48;104655;1262;99220;-75
2024/02/07 01:02:47;;;;;;;4.90;2.40;;;;;;;7.69;60.14;96084.22;104634;1261;103664;-79
2024/02/07 01:05:15;;;;;;;6.50;2.80;;;;;;;7.69;60.28;96074.92;104680;1270;101745;-79
2024/02/07 01:07:42;;;;;;;6.20;2.30;;;;;;;7.69;60.32;96069.60;104631;1260;107278;-79
2024/02/07 01:10:11;;;;;;;8.80;2.70;;;;;;;7.68;60.35;96063.28;104611;1261;99338;-79
2024/02/07 01:12:38;;;;;;;5.30;2.40;;;;;;;7.65;60.39;96057.94;104631;1270;98396;-79
2024/02/07 01:15:08;;;;;;;6.00;2.50;;;;;;;7.63;60.45;96049.98;104577;1261;102497;-79
2024/02/07 01:17:35;;;;;;;5.20;2.50;;;;;;;7.61;60.34;96046.55;104652;1261;101582;-80
2024/02/07 01:20:08;;;;;;;7.20;2.70;;;;;;;7.60;60.47;96047.73;104584;1274;99973;-79
2024/02/07 01:22:36;;;;;;;4.80;2.40;;;;;;;7.60;60.65;96044.87;104683;1262;97907;-79
2024/02/07 01:25:05;;;;;;;3.30;2.00;;;;;;;7.59;60.45;96039.68;104614;1270;98365;-79
2024/02/07 01:27:34;;;;;;;3.80;2.00;;;;;;;7.57;60.60;96034.28;104730;1270;103630;-79
2024/02/07 01:30:02;;;;;;;6.40;2.30;;;;;;;7.55;60.64;96031.25;104643;1261;101376;-79
2024/02/07 01:32:30;;;;;;;5.80;2.70;;;;;;;7.51;60.59;96018.03;104636;1270;100055;-79
2024/02/07 01:34:58;;;;;;;3.20;2.00;;;;;;;7.50;60.77;96014.55;104650;1270;98882;-79
2024/02/07 01:37:25;;;;;;;5.90;2.00;;;;;;;7.46;60.93;96011.45;104646;1273;98426;-79
2024/02/07 01:39:53;;;;;;;4.80;2.00;;;;;;;7.44;61.01;96008.34;104675;1260;103891;-80
2024/02/07 01:42:21;;;;;;;6.30;2.20;;;;;;;7.43;61.11;96015.00;104624;1258;101274;-79
2024/02/07 01:44:48;;;;;;;4.50;2.70;;;;;;;7.40;61.05;96014.65;104672;1260;100001;-79
2024/02/07 01:47:16;;;;;;;6.00;2.80;;;;;;;7.37;61.19;96016.17;104653;1257;99605;-80
2024/02/07 01:49:48;;;;;;;5.80;2.20;;;;;;;7.36;61.19;96007.12;104689;1260;98453;-76
2024/02/07 01:52:22;;;;;;;4.60;2.20;;;;;;;7.35;61.40;96000.61;104676;1259;103094;-76
2024/02/07 01:54:52;;;;;;;4.10;2.20;;;;;;;7.34;61.43;95998.81;104723;1258;100353;-76
2024/02/07 01:57:20;;;;;;;6.00;2.70;;;;;;;7.32;61.50;95994.17;104601;1258;99478;-76
2024/02/07 01:59:50;;;;;;;5.50;2.20;;;;;;;7.30;61.65;95988.69;104640;1260;97947;-76
2024/02/07 02:02:18;;;;;;;6.80;2.10;;;;;;;7.29;61.63;95982.42;104784;1260;98603;-76
2024/02/07 02:04:46;;;;;;;4.90;1.80;;;;;;;7.26;61.65;95984.23;104642;1268;103750;-76
2024/02/07 02:07:14;;;;;;;4.40;2.00;;;;;;;7.24;61.72;95985.59;104646;1262;101745;-76
2024/02/07 02:09:42;;;;;;;5.20;1.80;;;;;;;7.23;61.78;95980.77;104624;1261;99871;-76
2024/02/07 02:12:12;;;;;;;7.60;1.90;;;;;;;7.21;61.86;95982.70;104679;1270;98843;-76
2024/02/07 02:14:40;;;;;;;3.70;1.70;;;;;;;7.19;61.96;95977.17;104642;1267;98345;-76
2024/02/07 02:17:08;;;;;;;7.00;2.70;;;;;;;7.19;61.95;95973.34;104620;1260;104053;-75
2024/02/07 02:19:36;;;;;;;4.40;2.00;;;;;;;7.17;61.99;95968.52;104695;1270;108267;-75
2024/02/07 02:22:39;;;;;;;6.10;2.30;;;;;;;7.17;61.98;95971.46;104660;1274;100088;-75
2024/02/07 02:25:31;;;;;;;2.80;2.30;;;;;;;7.15;62.05;95971.93;104577;1256;97976;-75
2024/02/07 02:28:23;;;;;;;7.40;2.30;;;;;;;7.13;62.08;95968.83;104602;1257;99250;-75
2024/02/07 02:31:04;;;;;;;4.30;1.90;;;;;;;7.10;62.15;95968.05;104703;1261;103469;-76
2024/02/07 02:33:35;;;;;;;4.60;2.10;;;;;;;7.07;62.31;95968.20;104539;1264;100751;-77
2024/02/07 02:36:05;;;;;;;5.70;2.20;;;;;;;7.05;62.42;95964.21;104687;1260;100002;-77
2024/02/07 02:38:36;;;;;;;5.20;2.20;;;;;;;7.04;62.42;95965.84;104705;1261;98055;-77
2024/02/07 02:41:07;;;;;;;5.20;1.70;;;;;;;7.03;62.65;95963.07;104699;1263;97890;-77
2024/02/07 02:43:36;;;;;;;5.30;2.20;;;;;;;7.02;62.74;95961.80;104713;1257;103313;-77
2024/02/07 02:46:07;;;;;;;7.10;2.30;;;;;;;7.01;62.77;95963.22;104638;1261;101210;-80
2024/02/07 02:48:53;;;;;;;4.50;1.60;;;;;;;7.00;62.85;95954.36;104590;1260;100302;-80
2024/02/07 02:51:21;;;;;;;6.40;2.50;;;;;;;6.99;62.91;95952.94;104590;1258;97903;-80
2024/02/07 02:53:49;;;;;;;3.90;2.00;;;;;;;6.99;63.07;95955.67;104704;1270;98802;-79
2024/02/07 02:56:17;;;;;;;8.00;3.20;;;;;;;7.00;63.04;95956.39;104615;1260;103223;-80
2024/02/07 02:58:45;;;;;;;4.20;2.30;;;;;;;7.01;63.08;95952.32;104645;1261;101615;-79
2024/02/07 03:01:13;;;;;;;5.00;2.10;;;;;;;7.00;63.12;95945.13;104644;1263;100076;-80
2024/02/07 03:03:53;;;;;;;5.80;2.30;;;;;;;7.01;63.22;95938.27;104615;1270;98844;-80
2024/02/07 03:06:28;;;;;;;5.80;2.00;;;;;;;7.00;63.19;95934.55;104713;1262;98431;-75
2024/02/07 03:09:06;;;;;;;5.70;2.40;;;;;;;6.99;63.24;95930.41;104628;1266;103651;-75
2024/02/07 03:11:35;;;;;;;6.40;2.00;;;;;;;6.99;63.32;95931.11;104826;1260;101335;-75
2024/02/07 03:14:05;;;;;;;4.50;1.80;;;;;;;6.99;63.33;95928.85;104684;1261;99969;-75
2024/02/07 03:16:33;;;;;;;6.10;2.10;;;;;;;6.99;63.39;95929.05;104581;1262;98059;-79
2024/02/07 03:19:01;;;;;;;5.60;2.10;;;;;;;6.98;63.53;95927.24;104646;1262;98399;-79
2024/02/07 03:21:30;;;;;;;7.00;2.20;;;;;;;6.98;63.58;95925.15;104654;1262;103593;-80
2024/02/07 03:24:00;;;;;;;8.50;2.40;;;;;;;6.97;63.64;95921.30;104605;1260;101425;-79
2024/02/07 03:26:28;;;;;;;5.80;2.30;;;;;;;6.96;63.61;95916.24;104623;1260;101074;-75
2024/02/07 03:28:56;;;;;;;7.30;2.10;;;;;;;6.95;63.74;95913.20;104578;1260;98009;-75
2024/02/07 03:31:24;;;;;;;6.30;2.10;;;;;;;6.94;63.73;95914.41;104670;1262;98433;-74
2024/02/07 03:33:51;;;;;;;4.60;2.00;;;;;;;6.94;63.66;95913.34;104737;1272;103786;-75
2024/02/07 03:36:21;;;;;;;6.90;2.10;;;;;;;6.94;63.76;95913.34;104638;1261;101890;-75
2024/02/07 03:38:49;;;;;;;9.00;2.10;;;;;;;6.94;63.72;95917.25;104686;1260;99852;-75
2024/02/07 03:41:16;;;;;;;7.20;2.10;;;;;;;6.93;63.66;95908.64;104673;1274;97989;-75
2024/02/07 03:43:44;;;;;;;8.20;2.60;;;;;;;6.94;63.72;95910.94;104605;1268;98421;-75
2024/02/07 03:46:13;;;;;;;7.40;2.10;;;;;;;6.94;63.63;95918.66;104695;1271;102731;-76
2024/02/07 03:48:41;;;;;;;6.90;2.20;;;;;;;6.95;63.71;95921.41;104693;1257;101358;-77
2024/02/07 03:51:15;;;;;;;7.30;2.10;;;;;;;6.96;63.69;95916.78;104553;1263;100027;-76
2024/02/07 03:53:46;;;;;;;7.80;2.40;;;;;;;6.96;63.69;95909.27;104617;1261;97914;-76
2024/02/07 03:56:14;;;;;;;11.90;1.90;;;;;;;6.95;63.61;95904.15;104616;1261;98362;-77
2024/02/07 03:58:42;;;;;;;3.40;1.70;;;;;;;6.98;63.56;95903.14;104648;1270;103364;-76
2024/02/07 04:01:13;;;;;;;5.30;1.80;;;;;;;7.00;63.41;95903.54;104642;1271;101336;-77
2024/02/07 04:03:41;;;;;;;5.40;1.80;;;;;;;7.01;63.50;95898.83;104649;1261;99814;-80
2024/02/07 04:06:08;;;;;;;4.80;2.40;;;;;;;7.02;63.60;95891.35;104601;1258;98001;-80
2024/02/07 04:08:36;;;;;;;6.10;2.00;;;;;;;7.01;63.52;95889.70;104567;1260;98441;-80
2024/02/07 04:11:07;;;;;;;6.90;2.20;;;;;;;7.01;63.60;95898.02;104592;1270;103495;-80
2024/02/07 05:16:40;;;;;;;7.40;2.20;;;;;;;6.78;63.28;95842.83;104673;1271;98329;-75
2024/02/07 05:19:08;;;;;;;5.80;2.20;;;;;;;6.78;63.21;95842.54;104598;1260;103549;-76
2024/02/07 05:21:36;;;;;;;6.20;2.10;;;;;;;6.77;63.19;95839.58;104660;1261;101310;-76
2024/02/07 05:24:10;;;;;;;10.10;2.90;;;;;;;6.77;63.18;95826.05;104639;1260;99987;-75
2024/02/07 05:26:39;;;;;;;7.40;2.10;;;;;;;6.76;63.33;95822.17;104722;1262;97912;-75
2024/02/07 05:29:07;;;;;;;6.60;2.50;;;;;;;6.75;63.32;95820.89;104715;1267;98419;-75
2024/02/07 05:31:35;;;;;;;6.60;2.10;;;;;;;6.75;63.35;95816.44;104634;1260;103495;-75
2024/02/07 05:34:02;;;;;;;8.00;2.40;;;;;;;6.75;63.33;95819.74;104660;1256;101383;-76
2024/02/07 05:36:30;;;;;;;4.70;2.10;;;;;;;6.75;63.24;95820.89;104646;1262;100109;-75
2024/02/07 05:38:58;;;;;;;4.90;2.00;;;;;;;6.75;63.33;95821.48;104616;1273;97912;-79
2024/02/07 05:41:25;;;;;;;6.20;2.10;;;;;;;6.75;63.40;95819.53;104768;1258;99765;-79
2024/02/07 05:43:53;;;;;;;9.70;2.10;;;;;;;6.75;63.29;95822.27;104767;1256;103666;-78
2024/02/07 05:46:21;;;;;;;8.50;3.20;;;;;;;6.75;63.26;95811.98;104713;1260;101296;-76
2024/02/07 05:48:49;;;;;;;6.40;2.20;;;;;;;6.75;63.29;95804.02;104700;1261;99893;-76
2024/02/07 05:51:24;;;;;;;8.40;1.90;;;;;;;6.75;63.37;95809.23;104624;1261;99264;-76
2024/02/07 05:53:53;;;;;;;3.90;1.90;;;;;;;6.74;63.34;95799.34;104659;1260;98428;-76
2024/02/07 05:56:21;;;;;;;7.00;2.10;;;;;;;6.73;63.35;95805.27;104721;1261;103626;-76
2024/02/07 05:58:49;;;;;;;9.50;2.30;;;;;;;6.73;63.41;95814.90;104630;1271;101380;-81
2024/02/07 06:01:17;;;;;;;6.10;2.30;;;;;;;6.72;63.33;95809.09;104671;1260;99704;-77
2024/02/07 06:03:50;;;;;;;5.30;2.30;;;;;;;6.73;63.38;95809.34;104647;1260;99243;-76
2024/02/07 06:06:18;;;;;;;3.60;2.20;;;;;;;6.73;63.37;95813.25;104675;1256;98418;-76
2024/02/07 06:08:47;;;;;;;5.80;2.30;;;;;;;6.73;63.38;95816.27;104716;1260;103582;-76
2024/02/07 06:11:15;;;;;;;5.70;2.80;;;;;;;6.72;63.42;95811.52;104729;1257;101265;-76
2024/02/07 06:13:43;;;;;;;5.40;2.40;;;;;;;6.73;63.51;95812.55;104586;1271;100120;-76
2024/02/07 06:16:11;;;;;;;10.20;2.20;;;;;;;6.73;63.47;95805.41;104605;1256;99215;-76
2024/02/07 06:18:39;;;;;;;9.70;3.20;;;;;;;6.73;63.53;95798.56;104631;1256;98447;-81
2024/02/07 06:21:06;;;;;;;4.70;2.10;;;;;;;6.74;63.51;95798.91;104651;1260;103542;-82
2024/02/07 06:23:34;;;;;;;6.20;2.80;;;;;;;6.75;63.52;95804.20;104720;1261;101481;-81
2024/02/07 06:26:02;;;;;;;2.80;2.20;;;;;;;6.76;63.48;95806.20;104647;1260;100229;-81
2024/02/07 06:28:29;;;;;;;7.30;2.80;;;;;;;6.77;63.42;95804.23;104600;1259;97951;-82
2024/02/07 06:30:57;;;;;;;8.10;2.80;;;;;;;6.78;63.55;95812.46;104693;1260;98515;-81
2024/02/07 06:33:25;;;;;;;4.90;2.40;;;;;;;6.80;63.49;95809.31;104700;1256;102549;-81
2024/02/07 06:35:52;;;;;;;6.70;2.40;;;;;;;6.80;63.55;95806.37;104692;1257;100403;-82
2024/02/07 06:38:20;;;;;;;3.20;2.10;;;;;;;6.80;63.49;95804.10;104719;1261;99650;-76
2024/02/07 06:40:48;;;;;;;9.30;4.20;;;;;;;6.81;63.47;95799.59;104689;1261;97995;-76
2024/02/07 06:43:15;;;;;;;7.70;3.10;;;;;;;6.83;63.56;95801.10;104623;1257;99253;-76
2024/02/07 06:45:43;;;;;;;9.50;3.40;;;;;;;6.85;63.46;95793.16;104692;1261;103938;-76
2024/02/07 06:48:11;;;;;;;10.00;3.70;;;;;;;6.88;63.37;95795.30;104669;1260;101101;-76
2024/02/07 06:50:39;;;;;;;7.90;3.40;;;;;;;6.91;63.45;95800.09;104672;1257;99575;-76
2024/02/07 06:53:06;;;;;;;5.80;2.80;;;;;;;6.93;63.41;95798.49;104696;1272;97911;-76
2024/02/07 06:55:34;;;;;;;8.40;3.00;;;;;;;6.95;63.32;95793.52;104868;1263;98431;-76
2024/02/07 06:58:02;;;;;;;6.70;3.20;;;;;;;6.98;63.18;95795.80;106502;1257;103873;-75
2024/02/07 07:00:29;;;;;;;7.50;2.50;;;;;;;6.99;62.85;95793.96;104802;1262;100660;-74
2024/02/07 07:02:57;;;;;;;6.10;2.60;;;;;;;7.03;62.86;95788.36;104759;1262;100202;-74
2024/02/07 07:05:25;;;;;;;6.80;3.40;;;;;;;7.06;62.88;95778.58;104731;1257;97918;-74
2024/02/07 07:07:53;;;;;;;8.30;2.70;;;;;;;7.10;62.88;95779.42;104633;1262;99508;-74
2024/02/07 07:10:20;;;;;;;7.20;2.70;;;;;;;7.13;62.69;95773.39;104712;1273;103543;-74
2024/02/07 07:12:48;;;;;;;6.00;2.60;;;;;;;7.16;62.69;95772.70;104633;1260;101560;-73
2024/02/07 07:15:16;;;;;;;6.40;2.90;;;;;;;7.18;62.52;95772.88;104709;1257;99825;-78
2024/02/07 07:17:43;;;;;;;6.30;2.70;;;;;;;7.21;62.49;95775.63;104662;1260;97936;-77
2024/02/07 07:20:11;;;;;;;7.50;2.80;;;;;;;7.25;62.60;95770.89;104645;1260;98441;-76
2024/02/07 07:22:39;;;;;;;9.40;2.90;;;;;;;7.31;62.33;95775.60;104676;1270;102652;-76
2024/02/07 07:25:07;;;;;;;4.70;2.60;;;;;;;7.36;62.00;95790.30;104688;1256;101106;-75
2024/02/07 07:27:35;;;;;;;4.90;2.00;;;;;;;7.42;61.99;95789.05;104704;1270;99676;-75
2024/02/07 07:30:02;;;;;;;7.20;3.10;;;;;;;7.47;61.78;95776.23;104709;1256;97824;-76
2024/02/07 07:32:30;;;;;;;9.80;2.70;;;;;;;7.52;61.67;95772.44;104637;1275;98460;-75
2024/02/07 07:34:58;;;;;;;6.30;2.90;;;;;;;7.57;61.66;95773.91;104696;1257;103620;-80
2024/02/07 07:37:27;;;;;;;9.00;3.40;;;;;;;7.61;61.31;95774.24;104685;1260;101297;-79
2024/02/07 07:39:55;;;;;;;5.70;2.50;;;;;;;7.64;61.37;95775.39;104640;1261;100233;-79
2024/02/07 07:42:23;;;;;;;8.00;2.90;;;;;;;7.67;61.21;95783.36;104671;1263;97933;-78
2024/02/07 07:44:50;;;;;;;4.70;2.10;;;;;;;7.71;61.20;95783.14;104719;1261;98430;-79
2024/02/07 07:47:18;;;;;;;9.00;3.20;;;;;;;7.73;61.32;95780.93;104655;1261;103238;-79
2024/02/07 07:49:46;;;;;;;10.10;3.00;;;;;;;7.74;60.91;95774.44;104620;1261;101523;-79
2024/02/07 07:52:13;;;;;;;6.50;2.70;;;;;;;7.74;60.94;95771.75;104653;1260;99903;-79
2024/02/07 07:54:42;;;;;;;6.60;2.70;;;;;;;7.74;61.12;95770.84;104614;1258;97914;-78
2024/02/07 07:57:10;;;;;;;6.80;2.50;;;;;;;7.73;61.18;95772.23;104649;1262;98453;-79
2024/02/07 07:59:37;;;;;;;9.80;3.70;;;;;;;7.73;61.33;95769.44;104558;1270;102072;-79
2024/02/07 08:02:05;;;;;;;5.30;3.30;;;;;;;7.73;61.55;95773.58;104623;1260;100348;-74
2024/02/07 08:04:33;;;;;;;6.70;3.30;;;;;;;7.73;61.49;95770.50;104546;1261;106447;-75
2024/02/07 08:07:00;;;;;;;6.30;2.50;;;;;;;7.74;61.48;95774.48;104546;1261;98028;-74
2024/02/07 08:09:28;;;;;;;8.00;2.60;;;;;;;7.74;61.44;95775.96;104617;1262;97980;-75
2024/02/07 08:11:56;;;;;;;8.90;3.40;;;;;;;7.75;61.41;95780.58;104685;1260;103243;-74
2024/02/07 08:14:24;;;;;;;5.20;2.30;;;;;;;7.75;61.34;95775.15;104682;1260;101534;-79
2024/02/07 08:16:52;;;;;;;7.60;3.50;;;;;;;7.76;61.49;95785.84;104740;1259;99111;-79
2024/02/07 08:19:19;;;;;;;7.30;3.40;;;;;;;7.78;61.72;95782.81;104597;1260;98821;-78
2024/02/07 08:21:47;;;;;;;4.70;2.40;;;;;;;7.81;62.00;95788.42;104654;1260;97923;-82
2024/02/07 08:24:15;;;;;;;5.90;2.30;;;;;;;7.81;61.99;95789.23;104624;1262;103815;-80
2024/02/07 08:26:42;;;;;;;8.40;3.30;;;;;;;7.79;62.01;95787.13;104669;1263;101461;-79
2024/02/07 08:29:10;;;;;;;8.20;2.80;;;;;;;7.78;62.04;95786.90;104605;1262;100130;-79
2024/02/07 08:31:39;;;;;;;9.20;3.50;;;;;;;7.78;61.99;95791.89;104654;1261;98573;-78
2024/02/07 08:34:07;;;;;;;7.30;3.20;;;;;;;7.77;62.19;95790.37;104637;1269;98948;-76
2024/02/07 08:36:35;;;;;;;5.80;2.90;;;;;;;7.77;62.06;95792.94;104670;1262;103419;-75
2024/02/07 08:39:02;;;;;;;5.00;2.90;;;;;;;7.76;62.18;95789.44;104643;1262;101061;-75
2024/02/07 08:41:30;;;;;;;7.10;2.60;;;;;;;7.77;62.17;95789.18;104621;1270;100302;-75
2024/02/07 08:43:58;;;;;;;5.20;2.70;;;;;;;7.76;62.16;95781.00;104646;1257;98713;-76
2024/02/07 08:46:26;;;;;;;5.20;2.20;;;;;;;7.77;62.01;95786.53;104654;1260;98358;-73
2024/02/07 08:48:53;;;;;;;4.00;2.50;;;;;;;7.77;61.96;95786.55;104589;1260;103630;-73
2024/02/07 08:51:21;;;;;;;6.10;2.50;;;;;;;7.77;62.07;95782.48;104662;1270;101254;-74
2024/02/07 08:53:49;;;;;;;3.90;2.20;;;;;;;7.79;62.06;95780.21;104639;1262;100075;-74
2024/02/07 08:56:17;;;;;;;7.00;2.80;;;;;;;7.80;61.80;95786.69;104618;1261;98002;-74
2024/02/07 08:58:44;;;;;;;4.70;2.20;;;;;;;7.83;61.90;95775.85;104653;1262;99132;-73
2024/02/07 09:01:13;;;;;;;4.10;2.20;;;;;;;7.87;61.67;95778.67;104629;1261;103599;-76
2024/02/07 09:03:41;;;;;;;11.40;2.60;;;;;;;7.92;61.74;95779.94;104633;1261;101068;-75
2024/02/07 09:06:10;;;;;;;6.10;2.40;;;;;;;7.95;61.86;95778.66;104660;1273;99926;-77
2024/02/07 09:08:37;;;;;;;5.50;2.30;;;;;;;7.93;61.74;95783.00;104632;1275;97943;-76
2024/02/07 09:11:05;;;;;;;5.20;2.10;;;;;;;7.89;61.74;95778.72;104659;1260;98419;-76
2024/02/07 09:13:33;;;;;;;6.80;2.40;;;;;;;7.86;61.88;95781.48;104618;1257;103742;-76
2024/02/07 09:16:00;;;;;;;5.90;2.40;;;;;;;7.84;62.05;95785.44;104604;1260;101454;-75
2024/02/07 09:18:29;;;;;;;6.60;2.50;;;;;;;7.81;62.98;95788.26;104579;1258;98994;-74
2024/02/07 09:20:56;;;;;;;4.20;2.10;;;;;;;7.75;63.99;95783.80;104573;1256;97937;-75
2024/02/07 09:23:24;;;;;;;4.80;1.90;;;;;;;7.69;64.45;95783.30;104618;1261;98834;-74
2024/02/07 09:25:52;;;;;;;5.10;2.60;;;;;;;7.64;64.94;95789.94;104571;1262;103411;-74
2024/02/07 09:28:19;;;;;;;7.90;3.20;;;;;;;7.61;65.44;95794.01;104605;1261;101334;-74
2024/02/07 09:30:49;;;;;;;5.80;2.90;;;;;;;7.57;65.45;95794.89;104639;1269;99944;-73
2024/02/07 09:33:17;;;;;;;6.80;2.50;;;;;;;7.55;66.14;95795.20;104606;1260;98937;-74
2024/02/07 09:35:45;;;;;;;3.90;2.60;;;;;;;7.53;66.32;95786.68;104599;1258;98437;-73
2024/02/07 09:38:12;;;;;;;4.10;2.10;;;;;;;7.52;66.64;95781.61;104663;1270;103221;-74
2024/02/07 09:40:40;;;;;;;7.40;2.20;;;;;;;7.52;66.61;95781.08;104627;1262;101556;-74
2024/02/07 09:43:10;;;;;;;6.10;2.40;;;;;;;7.54;66.48;95782.54;104662;1256;99890;-74
2024/02/07 09:45:42;;;;;;;5.10;2.60;;;;;;;7.55;66.98;95784.71;104706;1260;97995;-74
2024/02/07 09:48:20;;;;;;;5.00;2.60;;;;;;;7.57;67.41;95783.94;104678;1262;97918;-77
2024/02/07 09:50:54;;;;;;;7.10;2.20;;;;;;;7.58;67.29;95786.06;104706;1261;102627;-78
2024/02/07 09:53:22;;;;;;;6.20;2.60;;;;;;;7.57;67.43;95783.15;104714;1272;101411;-76
2024/02/07 09:55:51;;;;;;;5.30;2.50;;;;;;;7.57;67.60;95781.00;104608;1270;99713;-78
2024/02/07 09:58:20;;;;;;;4.90;3.00;;;;;;;7.55;67.91;95784.05;104654;1259;97922;-77
2024/02/07 10:00:53;;;;;;;5.60;2.90;;;;;;;7.50;68.06;95779.41;104684;1272;98129;-75
2024/02/07 10:03:25;;;;;;;8.70;2.70;;;;;;;7.47;68.39;95777.73;104623;1262;103698;-75
2024/02/07 10:05:57;;;;;;;7.40;2.90;;;;;;;7.45;68.37;95779.14;104655;1256;101244;-75
2024/02/07 10:08:26;;;;;;;4.60;2.40;;;;;;;7.44;68.55;95779.60;104666;1275;99876;-77
2024/02/07 10:10:54;;;;;;;8.50;3.20;;;;;;;7.44;68.31;95776.63;104646;1272;97922;-77
2024/02/07 10:13:23;;;;;;;8.60;3.80;;;;;;;7.47;68.56;95773.62;104720;1256;98434;-78
2024/02/07 10:15:52;;;;;;;12.70;4.90;;;;;;;7.50;68.41;95777.84;104607;1256;103558;-76
2024/02/07 10:18:20;;;;;;;10.20;4.40;;;;;;;7.52;68.58;95769.30;104714;1259;101173;-76
2024/02/07 10:20:55;;;;;;;8.30;3.70;;;;;;;7.52;68.38;95764.27;104631;1274;99924;-78
2024/02/07 10:23:23;;;;;;;8.40;3.70;;;;;;;7.52;67.99;95765.62;104711;1271;97929;-78
2024/02/07 10:25:55;;;;;;;10.90;3.90;;;;;;;7.54;67.64;95763.78;104682;1259;98328;-80
2024/02/07 10:28:24;;;;;;;;;;;;;;;7.55;67.57;95760.16;104710;1261;103559;-79
2024/02/07 10:30:59;;;;;;;12.00;5.30;;;;;;;7.57;67.32;95759.45;104744;1256;101363;-74
2024/02/07 10:33:44;;;;;;;10.00;4.70;;;;;;;7.59;67.43;95755.16;104641;1262;99549;-74
2024/02/07 10:36:13;;;;;;;5.40;3.00;;;;;;;7.61;67.44;95753.63;104636;1260;98843;-74
2024/02/07 10:38:41;;;;;;;9.50;4.80;;;;;;;7.60;67.25;95752.59;104705;1261;98431;-75
2024/02/07 10:41:09;;;;;;;8.00;4.10;;;;;;;7.57;67.33;95752.34;104609;1258;103557;-74
2024/02/07 10:43:37;;;;;;;9.50;4.90;;;;;;;7.56;67.46;95751.32;104686;1271;101306;-74
2024/02/07 10:46:07;;;;;;;9.00;4.70;;;;;;;7.55;67.70;95751.45;104632;1261;100133;-80
2024/02/07 10:48:54;;;;;;;9.30;5.10;;;;;;;7.53;67.75;95749.59;104578;1262;97912;-79
2024/02/07 10:51:21;;;;;;;9.70;4.50;;;;;;;7.51;68.02;95745.27;104623;1278;98726;-80
2024/02/07 10:53:49;;;;;;;8.80;4.50;;;;;;;7.47;68.55;95742.02;104653;1262;103546;-80
2024/02/07 10:56:20;;;;;;;12.30;5.30;;;;;;;7.43;68.53;95745.54;104649;1256;101450;-79
2024/02/07 10:58:48;;;;;;;11.50;5.00;;;;;;;7.42;69.20;95745.61;104658;1257;99374;-80
2024/02/07 11:01:16;;;;;;;13.10;4.40;;;;;;;7.39;69.35;95744.08;104726;1275;98324;-75
2024/02/07 11:03:44;;;;;;;10.70;4.30;;;;;;;7.37;69.52;95738.92;104634;1271;98415;-75
2024/02/07 11:06:12;;;;;;;9.60;4.30;;;;;;;7.34;69.57;95735.27;104625;1260;103559;-74
2024/02/07 11:08:41;;;;;;;6.50;4.00;;;;;;;7.32;70.14;95747.89;104628;1261;101109;-74
2024/02/07 11:11:09;;;;;;;8.40;4.10;;;;;;;7.31;70.10;95730.59;104610;1260;100159;-74
2024/02/07 11:13:38;;;;;;;7.70;3.70;;;;;;;7.32;70.30;95723.89;104665;1257;97885;-74
2024/02/07 11:16:06;;;;;;;6.30;2.90;;;;;;;7.37;70.07;95726.73;104746;1261;98448;-75
2024/02/07 11:18:34;;;;;;;8.70;3.80;;;;;;;7.47;70.01;95722.27;104692;1261;110387;-74
2024/02/07 11:21:04;;;;;;;7.10;3.90;;;;;;;7.55;69.73;95722.67;104600;1260;101591;-74
2024/02/07 11:23:36;;;;;;;11.50;5.20;;;;;;;7.58;69.38;95723.94;104702;1262;99898;-74
2024/02/07 11:26:05;;;;;;;12.50;6.10;;;;;;;7.63;69.25;95718.27;104652;1262;99241;-74
2024/02/07 11:28:33;;;;;;;16.60;5.30;;;;;;;7.66;68.87;95716.52;104720;1271;99807;-74
2024/02/07 11:31:02;;;;;;;11.50;5.00;;;;;;;7.68;68.97;95710.84;104664;1271;103112;-79
2024/02/07 11:33:36;;;;;;;7.60;3.60;;;;;;;7.68;68.84;95712.16;104716;1262;101411;-79
2024/02/07 11:36:08;;;;;;;9.00;3.40;;;;;;;7.67;68.73;95718.54;104575;1259;278815;-79
2024/02/07 11:38:38;;;;;;;9.20;3.40;;;;;;;7.69;68.52;95713.47;104803;1275;98016;-79
2024/02/07 11:41:07;;;;;;;8.30;3.50;;;;;;;7.76;68.84;95705.20;104751;1273;98347;-78
2024/02/07 11:43:37;;;;;;;8.10;3.80;;;;;;;7.82;68.93;95700.58;104701;1256;104547;-80
2024/02/07 11:46:08;;;;;;;8.40;4.00;;;;;;;7.88;68.52;95699.77;104681;1260;101619;-78
2024/02/07 11:48:54;;;;;;;6.00;3.30;;;;;;;7.91;68.56;95694.41;104627;1260;100343;-80
2024/02/07 11:51:23;;;;;;;8.80;3.70;;;;;;;7.92;68.36;95693.56;104631;1256;98015;-79
2024/02/07 11:53:58;;;;;;;9.00;3.60;;;;;;;7.93;68.47;95692.64;104645;1263;98569;-79
2024/02/07 11:56:27;;;;;;;7.10;3.00;;;;;;;7.94;68.45;95697.66;104656;1275;104161;-79
2024/02/07 11:58:55;;;;;;;5.40;2.70;;;;;;;7.94;68.28;95697.17;104758;1261;100383;-79
2024/02/07 12:01:23;;;;;;;9.20;3.80;;;;;;;7.93;67.88;95692.69;104858;1260;99716;-80
2024/02/07 12:03:58;;;;;;;6.30;3.30;;;;;;;7.92;68.28;95691.48;104849;1262;97977;-77
2024/02/07 12:06:25;;;;;;;9.60;5.30;;;;;;;7.94;68.31;95699.11;104779;1260;99144;-78
2024/02/07 12:08:53;;;;;;;8.00;4.40;;;;;;;7.96;68.34;95688.73;104744;1262;103632;-77
2024/02/07 12:11:21;;;;;;;6.30;3.50;;;;;;;8.03;68.15;95687.20;104734;1261;101377;-77
2024/02/07 12:13:50;;;;;;;11.00;5.70;;;;;;;8.14;68.50;95683.66;104621;1257;100126;-78
2024/02/07 12:16:19;;;;;;;7.60;3.50;;;;;;;8.26;68.15;95684.08;104602;1262;98044;-77
2024/02/07 12:18:47;;;;;;;6.90;3.70;;;;;;;8.36;67.51;95680.46;104767;1256;98446;-78
2024/02/07 12:21:15;;;;;;;10.60;4.40;;;;;;;8.43;67.51;95668.61;104642;1262;102706;-77
2024/02/07 12:23:42;;;;;;;12.10;4.40;;;;;;;8.49;66.97;95672.45;104623;1262;101148;-79
2024/02/07 12:26:10;;;;;;;10.80;5.10;;;;;;;8.51;66.82;95669.85;104592;1256;100160;-79
2024/02/07 12:28:38;;;;;;;8.30;4.80;;;;;;;8.54;67.14;95675.03;104601;1270;98005;-79
2024/02/07 12:31:05;;;;;;;11.20;4.30;;;;;;;8.59;66.38;95674.04;104661;1262;98370;-74
2024/02/07 12:33:33;;;;;;;8.60;4.00;;;;;;;8.65;66.46;95664.84;104675;1261;103597;-74
2024/02/07 12:36:01;;;;;;;9.00;4.30;;;;;;;8.78;66.93;95667.87;104626;1262;101288;-74
2024/02/07 12:38:28;;;;;;;7.30;2.90;;;;;;;8.89;66.04;95669.89;104677;1262;99989;-74
2024/02/07 12:40:57;;;;;;;5.70;3.30;;;;;;;8.94;65.42;95665.50;104624;1262;97921;-74